createdAt,value
2016-05-02T00:00:07.413Z,1020.74
2016-05-02T00:01:07.415Z,1020.79
2016-05-02T00:02:07.402Z,1020.78
2016-05-02T00:03:07.389Z,1020.78
2016-05-02T00:04:07.392Z,1020.81
2016-05-02T00:05:07.379Z,1020.77
2016-05-02T00:06:07.382Z,1020.77
2016-05-02T00:07:07.369Z,1020.79
2016-05-02T00:08:07.371Z,1020.78
2016-05-02T00:09:07.359Z,1020.81
2016-05-02T00:10:07.362Z,1020.86
2016-05-02T00:11:07.348Z,1020.83
2016-05-02T00:12:07.351Z,1020.82
2016-05-02T00:13:07.338Z,1020.85
2016-05-02T00:14:07.340Z,1020.86
2016-05-02T00:15:07.327Z,1020.86
2016-05-02T00:16:07.331Z,1020.89
2016-05-02T00:17:07.318Z,1020.91
2016-05-02T00:18:07.320Z,1020.96
2016-05-02T00:20:07.591Z,1020.95
2016-05-02T00:21:09.141Z,1020.97
2016-05-02T00:22:07.299Z,1020.96
2016-05-02T00:23:07.287Z,1020.96
2016-05-02T00:24:07.274Z,1020.96
2016-05-02T00:25:07.277Z,1021.03
2016-05-02T00:26:07.264Z,1020.98
2016-05-02T00:27:07.266Z,1020.96
2016-05-02T00:28:08.190Z,1020.96
2016-05-02T00:29:08.224Z,1020.94
2016-05-02T00:30:07.244Z,1020.97
2016-05-02T00:31:07.246Z,1020.98
2016-05-02T00:32:07.233Z,1020.99
2016-05-02T00:33:07.235Z,1020.97
2016-05-02T00:34:07.222Z,1021
2016-05-02T00:35:07.224Z,1020.99
2016-05-02T00:36:07.212Z,1021
2016-05-02T00:37:07.199Z,1020.95
2016-05-02T00:38:07.202Z,1020.94
2016-05-02T00:39:07.189Z,1020.96
2016-05-02T00:40:07.192Z,1020.97
2016-05-02T00:41:07.178Z,1020.99
2016-05-02T00:42:07.182Z,1020.97
2016-05-02T00:43:07.168Z,1021.03
2016-05-02T00:44:07.171Z,1021.03
2016-05-02T00:45:07.158Z,1021.02
2016-05-02T00:46:07.161Z,1021.02
2016-05-02T00:47:07.148Z,1021.06
2016-05-02T00:48:07.150Z,1021.08
2016-05-02T00:49:07.137Z,1021.09
2016-05-02T00:50:07.125Z,1021.03
2016-05-02T00:51:07.143Z,1021.04
2016-05-02T00:52:07.114Z,1021.03
2016-05-02T00:53:07.117Z,1021.02
2016-05-02T00:54:07.105Z,1021
2016-05-02T00:55:07.107Z,1021
2016-05-02T00:56:07.094Z,1020.99
2016-05-02T00:57:07.081Z,1020.95
2016-05-02T00:58:07.083Z,1020.93
2016-05-02T00:59:07.071Z,1020.93
2016-05-02T01:00:07.074Z,1020.95
2016-05-02T01:01:07.060Z,1020.96
2016-05-02T01:02:07.063Z,1020.94
2016-05-02T01:03:07.059Z,1020.95
2016-05-02T01:04:07.106Z,1020.95
2016-05-02T01:05:07.794Z,1020.96
2016-05-02T01:06:07.169Z,1020.97
2016-05-02T01:07:07.528Z,1020.97
2016-05-02T01:08:07.241Z,1020.97
2016-05-02T01:09:07.260Z,1020.97
2016-05-02T01:10:07.263Z,1020.98
2016-05-02T01:11:07.282Z,1020.99
2016-05-02T01:12:07.285Z,1020.94
2016-05-02T01:13:07.302Z,1020.94
2016-05-02T01:14:07.295Z,1020.93
2016-05-02T01:15:07.396Z,1020.94
2016-05-02T01:16:07.296Z,1020.94
2016-05-02T01:17:07.493Z,1020.91
2016-05-02T01:18:07.296Z,1020.92
2016-05-02T01:19:07.286Z,1020.94
2016-05-02T01:20:07.290Z,1020.91
2016-05-02T01:21:07.279Z,1020.93
2016-05-02T01:22:07.268Z,1020.98
2016-05-02T01:23:07.273Z,1020.99
2016-05-02T01:24:07.260Z,1020.98
2016-05-02T01:25:07.264Z,1021.01
2016-05-02T01:26:07.252Z,1020.97
2016-05-02T01:27:07.254Z,1021
2016-05-02T01:28:07.243Z,1021.03
2016-05-02T01:29:07.230Z,1021.04
2016-05-02T01:30:07.233Z,1021.02
2016-05-02T01:31:07.220Z,1021.03
2016-05-02T01:32:07.224Z,1021.01
2016-05-02T01:33:07.211Z,1021.01
2016-05-02T01:34:07.214Z,1021
2016-05-02T01:35:07.201Z,1021
2016-05-02T01:36:07.188Z,1020.99
2016-05-02T01:37:08.784Z,1020.97
2016-05-02T01:38:07.178Z,1020.98
2016-05-02T01:39:07.181Z,1021.02
2016-05-02T01:40:07.167Z,1021.02
2016-05-02T01:41:07.170Z,1021.03
2016-05-02T01:42:07.157Z,1021
2016-05-02T01:43:07.160Z,1021.04
2016-05-02T01:44:07.210Z,1021.03
2016-05-02T01:45:07.134Z,1021.06
2016-05-02T01:46:07.136Z,1021.01
2016-05-02T01:47:07.124Z,1021
2016-05-02T01:48:07.127Z,1020.98
2016-05-02T01:49:07.113Z,1021.01
2016-05-02T01:50:07.101Z,1020.99
2016-05-02T01:51:07.104Z,1021.02
2016-05-02T01:52:07.091Z,1020.99
2016-05-02T01:53:07.093Z,1021.02
2016-05-02T01:54:07.080Z,1020.97
2016-05-02T01:55:07.067Z,1021
2016-05-02T01:56:07.070Z,1020.99
2016-05-02T01:57:07.057Z,1021.04
2016-05-02T01:58:07.060Z,1021.02
2016-05-02T01:59:07.046Z,1021.01
2016-05-02T02:00:07.049Z,1021
2016-05-02T02:01:07.037Z,1021.01
2016-05-02T02:02:07.023Z,1020.99
2016-05-02T02:03:07.026Z,1020.99
2016-05-02T02:04:07.014Z,1021.02
2016-05-02T02:05:07.016Z,1021.03
2016-05-02T02:06:07.003Z,1021.03
2016-05-02T02:07:07.006Z,1020.99
2016-05-02T02:08:06.992Z,1021.01
2016-05-02T02:09:06.980Z,1021.04
2016-05-02T02:10:06.983Z,1021.06
2016-05-02T02:11:06.969Z,1021.04
2016-05-02T02:12:06.972Z,1021.06
2016-05-02T02:13:06.959Z,1021.07
2016-05-02T02:14:06.947Z,1021.06
2016-05-02T02:15:06.949Z,1021.02
2016-05-02T02:16:06.952Z,1021.05
2016-05-02T02:17:06.938Z,1021.08
2016-05-02T02:18:06.926Z,1021.04
2016-05-02T02:19:06.913Z,1021.06
2016-05-02T02:20:06.916Z,1021.08
2016-05-02T02:21:06.918Z,1021.06
2016-05-02T02:22:06.905Z,1021.08
2016-05-02T02:23:07.940Z,1021.09
2016-05-02T02:24:06.891Z,1021.08
2016-05-02T02:25:07.481Z,1021.05
2016-05-02T02:26:06.874Z,1021.04
2016-05-02T02:27:06.867Z,1021.03
2016-05-02T02:28:06.854Z,1021.03
2016-05-02T02:29:06.857Z,1021.03
2016-05-02T02:30:06.843Z,1021.12
2016-05-02T02:31:06.846Z,1021.04
2016-05-02T02:32:08.427Z,1021.06
2016-05-02T02:33:07.774Z,1021.09
2016-05-02T02:34:06.823Z,1021.11
2016-05-02T02:35:06.810Z,1021.08
2016-05-02T02:36:06.812Z,1021.1
2016-05-02T02:37:06.800Z,1021.11
2016-05-02T02:38:06.787Z,1021.1
2016-05-02T02:39:06.789Z,1021.1
2016-05-02T02:40:06.777Z,1021.14
2016-05-02T02:41:06.780Z,1021.13
2016-05-02T02:42:06.767Z,1021.1
2016-05-02T02:43:06.753Z,1021.12
2016-05-02T02:44:06.756Z,1021.18
2016-05-02T02:45:06.743Z,1021.16
2016-05-02T02:46:06.746Z,1021.14
2016-05-02T02:47:06.733Z,1021.13
2016-05-02T02:48:06.720Z,1021.16
2016-05-02T02:49:06.722Z,1021.14
2016-05-02T02:50:06.710Z,1021.12
2016-05-02T02:51:06.713Z,1021.17
2016-05-02T02:52:06.700Z,1021.17
2016-05-02T02:53:06.687Z,1021.16
2016-05-02T02:54:06.690Z,1021.19
2016-05-02T02:55:06.677Z,1021.18
2016-05-02T02:56:06.679Z,1021.15
2016-05-02T02:57:07.073Z,1021.13
2016-05-02T02:58:06.653Z,1021.09
2016-05-02T02:59:06.656Z,1021.12
2016-05-02T03:00:06.644Z,1021.09
2016-05-02T03:01:06.646Z,1021.11
2016-05-02T03:02:06.632Z,1021.08
2016-05-02T03:03:06.635Z,1021.07
2016-05-02T03:04:06.623Z,1021.09
2016-05-02T03:05:06.610Z,1021.09
2016-05-02T03:06:06.629Z,1021.11
2016-05-02T03:07:06.600Z,1021.09
2016-05-02T03:08:06.587Z,1021.11
2016-05-02T03:09:06.590Z,1021.12
2016-05-02T03:10:06.576Z,1021.09
2016-05-02T03:11:06.579Z,1021.11
2016-05-02T03:12:06.567Z,1021.11
2016-05-02T03:13:06.554Z,1021.1
2016-05-02T03:14:06.556Z,1021.13
2016-05-02T03:15:06.542Z,1021.1
2016-05-02T03:16:06.530Z,1021.1
2016-05-02T03:17:06.533Z,1021.1
2016-05-02T03:18:06.520Z,1021.08
2016-05-02T03:19:06.522Z,1021.09
2016-05-02T03:20:06.510Z,1021.11
2016-05-02T03:21:06.512Z,1021.1
2016-05-02T03:22:06.500Z,1021.08
2016-05-02T03:23:06.486Z,1021.09
2016-05-02T03:24:06.489Z,1021.12
2016-05-02T03:25:06.476Z,1021.09
2016-05-02T03:26:06.463Z,1021.11
2016-05-02T03:27:06.466Z,1021.11
2016-05-02T03:28:06.452Z,1021.1
2016-05-02T03:29:06.455Z,1021.11
2016-05-02T03:30:06.443Z,1021.16
2016-05-02T03:31:06.446Z,1021.15
2016-05-02T03:32:06.432Z,1021.16
2016-05-02T03:33:06.420Z,1021.17
2016-05-02T03:34:06.422Z,1021.16
2016-05-02T03:35:06.409Z,1021.15
2016-05-02T03:36:06.396Z,1021.18
2016-05-02T03:37:06.399Z,1021.15
2016-05-02T03:38:06.386Z,1021.15
2016-05-02T03:39:06.389Z,1021.17
2016-05-02T03:40:06.376Z,1021.13
2016-05-02T03:41:06.362Z,1021.16
2016-05-02T03:42:06.365Z,1021.15
2016-05-02T03:43:06.352Z,1021.16
2016-05-02T03:44:06.355Z,1021.2
2016-05-02T03:45:06.342Z,1021.14
2016-05-02T03:46:06.330Z,1021.16
2016-05-02T03:47:06.333Z,1021.2
2016-05-02T03:48:06.319Z,1021.15
2016-05-02T03:49:06.306Z,1021.14
2016-05-02T03:50:06.761Z,1021.14
2016-05-02T03:51:06.296Z,1021.14
2016-05-02T03:52:06.299Z,1021.17
2016-05-02T03:53:06.286Z,1021.16
2016-05-02T03:54:06.272Z,1021.14
2016-05-02T03:55:06.275Z,1021.17
2016-05-02T03:56:06.263Z,1021.16
2016-05-02T03:57:06.266Z,1021.2
2016-05-02T03:58:06.253Z,1021.17
2016-05-02T03:59:06.240Z,1021.14
2016-05-02T04:00:06.243Z,1021.19
2016-05-02T04:01:06.229Z,1021.15
2016-05-02T04:02:06.232Z,1021.17
2016-05-02T04:03:06.219Z,1021.19
2016-05-02T04:04:06.207Z,1021.28
2016-05-02T04:05:06.209Z,1021.28
2016-05-02T04:06:06.196Z,1021.26
2016-05-02T04:07:06.199Z,1021.29
2016-05-02T04:08:06.185Z,1021.19
2016-05-02T04:09:06.188Z,1021.24
2016-05-02T04:10:06.175Z,1021.26
2016-05-02T04:11:06.162Z,1021.26
2016-05-02T04:12:06.165Z,1021.27
2016-05-02T04:13:06.153Z,1021.25
2016-05-02T04:14:06.139Z,1021.32
2016-05-02T04:16:06.129Z,1021.4
2016-05-02T04:17:06.131Z,1021.32
2016-05-02T04:18:06.119Z,1021.34
2016-05-02T04:19:06.122Z,1021.37
2016-05-02T04:20:06.108Z,1021.41
2016-05-02T04:21:06.220Z,1021.44
2016-05-02T04:22:06.098Z,1021.42
2016-05-02T04:23:06.100Z,1021.39
2016-05-02T04:24:06.103Z,1021.39
2016-05-02T04:26:06.343Z,1021.45
2016-05-02T04:27:06.690Z,1021.41
2016-05-02T04:28:06.083Z,1021.47
2016-05-02T04:29:06.070Z,1021.42
2016-05-02T04:30:06.073Z,1021.48
2016-05-02T04:31:06.122Z,1021.49
2016-05-02T04:32:06.062Z,1021.5
2016-05-02T04:33:06.065Z,1021.53
2016-05-02T04:34:06.052Z,1021.48
2016-05-02T04:35:06.055Z,1021.52
2016-05-02T04:36:06.057Z,1021.56
2016-05-02T04:37:06.045Z,1021.57
2016-05-02T04:38:06.048Z,1021.58
2016-05-02T04:39:06.051Z,1021.57
2016-05-02T04:40:06.037Z,1021.59
2016-05-02T04:41:06.039Z,1021.59
2016-05-02T04:42:06.042Z,1021.67
2016-05-02T04:43:06.046Z,1021.65
2016-05-02T04:44:06.048Z,1021.66
2016-05-02T04:45:06.035Z,1021.58
2016-05-02T04:46:06.037Z,1021.63
2016-05-02T04:47:06.040Z,1021.6
2016-05-02T04:48:06.043Z,1021.61
2016-05-02T04:49:06.045Z,1021.57
2016-05-02T04:50:06.048Z,1021.58
2016-05-02T04:51:06.051Z,1021.59
2016-05-02T04:52:06.038Z,1021.6
2016-05-02T04:53:06.041Z,1021.57
2016-05-02T04:54:06.044Z,1021.63
2016-05-02T04:55:06.046Z,1021.69
2016-05-02T04:56:06.049Z,1021.67
2016-05-02T04:57:06.052Z,1021.67
2016-05-02T04:58:06.055Z,1021.71
2016-05-02T04:59:06.057Z,1021.73
2016-05-02T05:00:06.060Z,1021.68
2016-05-02T05:02:06.065Z,1021.68
2016-05-02T05:03:06.083Z,1021.7
2016-05-02T05:04:06.086Z,1021.69
2016-05-02T05:05:06.088Z,1021.72
2016-05-02T05:06:06.091Z,1021.7
2016-05-02T05:07:06.094Z,1021.68
2016-05-02T05:08:06.097Z,1021.72
2016-05-02T05:09:06.100Z,1021.75
2016-05-02T05:10:06.712Z,1021.81
2016-05-02T05:11:06.262Z,1021.84
2016-05-02T05:13:06.126Z,1021.82
2016-05-02T05:14:06.129Z,1021.88
2016-05-02T05:15:06.148Z,1021.88
2016-05-02T05:16:06.150Z,1021.88
2016-05-02T05:17:06.153Z,1021.91
2016-05-02T05:18:06.156Z,1022
2016-05-02T05:19:06.158Z,1022.03
2016-05-02T05:20:06.176Z,1022.06
2016-05-02T05:21:06.350Z,1022.11
2016-05-02T05:22:06.197Z,1022.1
2016-05-02T05:23:06.200Z,1022.14
2016-05-02T05:24:06.203Z,1022.18
2016-05-02T05:25:06.221Z,1022.14
2016-05-02T05:26:06.224Z,1022.13
2016-05-02T05:27:06.227Z,1022.12
2016-05-02T05:28:06.229Z,1022.11
2016-05-02T05:29:06.247Z,1022.11
2016-05-02T05:30:06.250Z,1022.1
2016-05-02T05:31:06.269Z,1022.14
2016-05-02T05:32:06.271Z,1022.16
2016-05-02T05:33:06.289Z,1022.16
2016-05-02T05:34:06.291Z,1022.14
2016-05-02T05:35:06.294Z,1022.13
2016-05-02T05:36:06.344Z,1022.13
2016-05-02T05:37:06.315Z,1022.16
2016-05-02T05:38:06.334Z,1022.17
2016-05-02T05:39:06.337Z,1022.18
2016-05-02T05:40:06.479Z,1022.19
2016-05-02T05:41:06.358Z,1022.16
2016-05-02T05:42:06.360Z,1022.18
2016-05-02T05:43:06.378Z,1022.15
2016-05-02T05:44:06.381Z,1022.19
2016-05-02T05:45:06.400Z,1022.21
2016-05-02T05:46:06.403Z,1022.33
2016-05-02T05:47:06.405Z,1022.32
2016-05-02T05:48:06.423Z,1022.29
2016-05-02T05:49:06.442Z,1022.31
2016-05-02T05:50:06.445Z,1022.25
2016-05-02T05:51:07.681Z,1022.29
2016-05-02T05:52:06.465Z,1022.34
2016-05-02T05:53:06.483Z,1022.39
2016-05-02T05:54:06.486Z,1022.36
2016-05-02T05:55:06.489Z,1022.4
2016-05-02T05:56:06.508Z,1022.4
2016-05-02T05:57:06.526Z,1022.41
2016-05-02T05:58:06.528Z,1022.37
2016-05-02T05:59:06.546Z,1022.4
2016-05-02T06:00:06.549Z,1022.41
2016-05-02T06:01:06.552Z,1022.4
2016-05-02T06:02:06.571Z,1022.46
2016-05-02T06:03:06.588Z,1022.54
2016-05-02T06:04:06.591Z,1022.58
2016-05-02T06:05:06.610Z,1022.66
2016-05-02T06:06:06.612Z,1022.66
2016-05-02T06:07:06.630Z,1022.76
2016-05-02T06:08:06.633Z,1022.79
2016-05-02T06:09:06.652Z,1022.84
2016-05-02T06:10:06.655Z,1022.99
2016-05-02T06:11:06.673Z,1023.14
2016-05-02T06:12:06.690Z,1023.1
2016-05-02T06:13:06.693Z,1023.12
2016-05-02T06:14:06.712Z,1023.24
2016-05-02T06:15:06.714Z,1023.37
2016-05-02T06:16:06.733Z,1023.39
2016-05-02T06:17:06.751Z,1023.41
2016-05-02T06:18:06.754Z,1023.44
2016-05-02T06:19:06.756Z,1023.57
2016-05-02T06:20:06.775Z,1023.66
2016-05-02T06:21:06.839Z,1023.77
2016-05-02T06:22:06.795Z,1023.81
2016-05-02T06:23:06.866Z,1023.83
2016-05-02T06:24:06.821Z,1023.97
2016-05-02T06:25:06.841Z,1024
2016-05-02T06:26:06.843Z,1023.73
2016-05-02T06:27:06.861Z,1023.62
2016-05-02T06:28:06.879Z,1023.76
2016-05-02T06:29:07.585Z,1023.8
2016-05-02T06:30:06.900Z,1024.11
2016-05-02T06:31:06.903Z,1024.34
2016-05-02T06:32:07.468Z,1024.34
2016-05-02T06:33:06.940Z,1024.33
2016-05-02T06:34:06.943Z,1024.29
2016-05-02T06:35:06.960Z,1024.15
2016-05-02T06:36:06.980Z,1024.04
2016-05-02T06:37:06.982Z,1024.24
2016-05-02T06:38:07.001Z,1024.49
2016-05-02T06:39:07.018Z,1024.58
2016-05-02T06:40:07.021Z,1024.45
2016-05-02T06:41:07.040Z,1024.21
2016-05-02T06:42:07.058Z,1024.16
2016-05-02T06:43:07.060Z,1024.24
2016-05-02T06:44:07.079Z,1024.2
2016-05-02T06:45:07.097Z,1024.19
2016-05-02T06:46:07.115Z,1024.11
2016-05-02T06:47:07.117Z,1024.04
2016-05-02T06:48:07.137Z,1024.04
2016-05-02T06:49:07.155Z,1023.95
2016-05-02T06:50:07.158Z,1023.9
2016-05-02T06:51:07.176Z,1023.88
2016-05-02T06:52:07.194Z,1023.83
2016-05-02T06:53:07.211Z,1023.78
2016-05-02T06:54:07.214Z,1023.76
2016-05-02T06:55:07.233Z,1023.74
2016-05-02T06:56:08.127Z,1023.73
2016-05-02T06:57:07.832Z,1023.62
2016-05-02T06:58:07.272Z,1023.54
2016-05-02T06:59:07.619Z,1023.5
2016-05-02T07:00:07.310Z,1023.49
2016-05-02T07:01:07.327Z,1023.51
2016-05-02T07:02:07.346Z,1023.43
2016-05-02T07:03:07.349Z,1023.4
2016-05-02T07:04:08.336Z,1023.37
2016-05-02T07:05:07.526Z,1023.3
2016-05-02T07:06:07.404Z,1023.32
2016-05-02T07:07:07.407Z,1023.28
2016-05-02T07:08:07.424Z,1023.31
2016-05-02T07:09:07.443Z,1023.29
2016-05-02T07:10:07.462Z,1023.28
2016-05-02T07:11:07.479Z,1023.22
2016-05-02T07:12:07.498Z,1023.28
2016-05-02T07:13:07.516Z,1023.25
2016-05-02T07:14:07.518Z,1023.23
2016-05-02T07:15:07.537Z,1023.19
2016-05-02T07:16:07.555Z,1023.23
2016-05-02T07:17:07.574Z,1023.23
2016-05-02T07:18:07.592Z,1023.28
2016-05-02T07:19:07.611Z,1023.35
2016-05-02T07:20:07.628Z,1023.2
2016-05-02T07:21:07.647Z,1023.23
2016-05-02T07:22:07.665Z,1023.24
2016-05-02T07:23:07.683Z,1023.15
2016-05-02T07:24:07.687Z,1023.09
2016-05-02T07:25:07.705Z,1023.13
2016-05-02T07:26:07.723Z,1023.1
2016-05-02T07:27:07.742Z,1023.1
2016-05-02T07:28:07.760Z,1023.03
2016-05-02T07:29:07.778Z,1023.02
2016-05-02T07:30:07.796Z,1023.03
2016-05-02T07:31:07.814Z,1023.02
2016-05-02T07:32:07.816Z,1023.03
2016-05-02T07:33:07.835Z,1023.01
2016-05-02T07:34:07.854Z,1023.11
2016-05-02T07:35:07.872Z,1023.09
2016-05-02T07:36:07.890Z,1023.05
2016-05-02T07:37:08.565Z,1023.06
2016-05-02T07:38:07.942Z,1022.99
2016-05-02T07:39:07.946Z,1023.04
2016-05-02T07:40:07.963Z,1022.95
2016-05-02T07:41:07.966Z,1022.92
2016-05-02T07:42:07.985Z,1022.9
2016-05-02T07:43:08.004Z,1022.82
2016-05-02T07:44:08.021Z,1022.83
2016-05-02T07:45:08.040Z,1022.87
2016-05-02T07:46:08.059Z,1022.87
2016-05-02T07:47:08.076Z,1022.77
2016-05-02T07:48:08.392Z,1022.77
2016-05-02T07:49:08.097Z,1022.72
2016-05-02T07:50:08.115Z,1022.75
2016-05-02T07:51:08.306Z,1022.78
2016-05-02T07:52:08.153Z,1022.76
2016-05-02T07:53:08.170Z,1022.78
2016-05-02T07:54:08.189Z,1022.65
2016-05-02T07:55:08.207Z,1022.7
2016-05-02T07:56:08.225Z,1022.7
2016-05-02T07:57:08.244Z,1022.66
2016-05-02T07:58:08.262Z,1022.8
2016-05-02T07:59:08.264Z,1022.8
2016-05-02T08:00:08.299Z,1022.87
2016-05-02T08:01:08.317Z,1022.85
2016-05-02T08:02:08.319Z,1022.83
2016-05-02T08:03:08.338Z,1022.93
2016-05-02T08:04:08.357Z,1022.76
2016-05-02T08:05:08.374Z,1022.8
2016-05-02T08:06:08.393Z,1022.73
2016-05-02T08:07:08.411Z,1022.77
2016-05-02T08:08:08.430Z,1022.74
2016-05-02T08:09:08.449Z,1022.69
2016-05-02T08:10:08.465Z,1022.49
2016-05-02T08:11:08.485Z,1022.43
2016-05-02T08:13:08.849Z,1022.37
2016-05-02T08:14:09.352Z,1022.37
2016-05-02T08:15:08.558Z,1022.29
2016-05-02T08:16:08.576Z,1022.31
2016-05-02T08:17:08.578Z,1022.22
2016-05-02T08:18:08.956Z,1022.28
2016-05-02T08:19:08.631Z,1022.31
2016-05-02T08:20:08.634Z,1022.16
2016-05-02T08:21:08.653Z,1022.19
2016-05-02T08:22:08.670Z,1022.17
2016-05-02T08:23:08.688Z,1022.25
2016-05-02T08:24:08.707Z,1022.17
2016-05-02T08:25:08.709Z,1022.05
2016-05-02T08:26:09.275Z,1022.07
2016-05-02T08:27:08.747Z,1022.11
2016-05-02T08:28:08.952Z,1022.03
2016-05-02T08:29:08.767Z,1022.06
2016-05-02T08:30:08.786Z,1022
2016-05-02T08:31:08.804Z,1022.09
2016-05-02T08:32:08.822Z,1021.97
2016-05-02T08:33:08.841Z,1021.89
2016-05-02T08:34:08.843Z,1021.78
2016-05-02T08:35:08.861Z,1021.52
2016-05-02T08:36:08.880Z,1021.44
2016-05-02T08:37:08.882Z,1021.39
2016-05-02T08:38:08.902Z,1021.41
2016-05-02T08:39:08.919Z,1021.33
2016-05-02T08:40:08.921Z,1021.35
2016-05-02T08:41:08.940Z,1021.36
2016-05-02T08:42:08.943Z,1021.32
2016-05-02T08:43:08.962Z,1021.33
2016-05-02T08:44:08.979Z,1021.32
2016-05-02T08:45:08.982Z,1021.46
2016-05-02T08:46:08.985Z,1021.46
2016-05-02T08:47:09.004Z,1021.39
2016-05-02T08:48:09.006Z,1021.45
2016-05-02T08:49:09.024Z,1021.28
2016-05-02T08:50:09.026Z,1021.3
2016-05-02T08:51:09.029Z,1021.35
2016-05-02T08:52:09.048Z,1021.22
2016-05-02T08:53:09.051Z,1021.26
2016-05-02T08:54:09.053Z,1021.28
2016-05-02T08:55:09.055Z,1021.28
2016-05-02T08:57:09.078Z,1021.23
2016-05-02T08:58:09.080Z,1021.21
2016-05-02T08:59:09.083Z,1021.2
2016-05-02T09:00:09.429Z,1021.14
2016-05-02T09:01:09.088Z,1021.1
2016-05-02T09:02:09.388Z,1021.06
2016-05-02T09:03:09.094Z,1021.03
2016-05-02T09:04:09.096Z,1021.12
2016-05-02T09:05:09.099Z,1021.09
2016-05-02T09:06:09.102Z,1021.11
2016-05-02T09:07:09.166Z,1021.09
2016-05-02T09:08:09.107Z,1021.07
2016-05-02T09:09:09.766Z,1021.09
2016-05-02T09:10:09.112Z,1021.07
2016-05-02T09:11:09.115Z,1021.11
2016-05-02T09:12:09.117Z,1021.01
2016-05-02T09:13:09.120Z,1020.95
2016-05-02T09:14:09.123Z,1020.94
2016-05-02T09:15:09.125Z,1021
2016-05-02T09:16:09.128Z,1021.06
2016-05-02T09:17:09.131Z,1021.01
2016-05-02T09:18:09.134Z,1021
2016-05-02T09:19:09.136Z,1020.97
2016-05-02T09:20:09.139Z,1020.94
2016-05-02T09:21:09.142Z,1020.88
2016-05-02T09:22:09.145Z,1020.91
2016-05-02T09:23:09.147Z,1020.8
2016-05-02T09:24:09.150Z,1020.98
2016-05-02T09:25:09.152Z,1021
2016-05-02T09:26:09.140Z,1020.95
2016-05-02T09:27:09.142Z,1020.91
2016-05-02T09:28:09.145Z,1020.9
2016-05-02T09:29:09.148Z,1020.95
2016-05-02T09:30:09.931Z,1021.08
2016-05-02T09:31:09.152Z,1020.92
2016-05-02T09:32:09.374Z,1020.88
2016-05-02T09:33:09.237Z,1020.83
2016-05-02T09:34:09.161Z,1020.81
2016-05-02T09:35:09.397Z,1020.7
2016-05-02T09:36:09.605Z,1020.77
2016-05-02T09:37:09.169Z,1020.75
2016-05-02T09:38:09.155Z,1020.76
2016-05-02T09:39:10.316Z,1020.76
2016-05-02T09:40:09.161Z,1020.84
2016-05-02T09:41:09.163Z,1020.84
2016-05-02T09:42:09.167Z,1020.89
2016-05-02T09:43:09.169Z,1020.85
2016-05-02T09:44:09.171Z,1020.86
2016-05-02T09:45:09.175Z,1020.8
2016-05-02T09:46:09.177Z,1020.86
2016-05-02T09:47:09.180Z,1020.87
2016-05-02T09:48:09.183Z,1020.86
2016-05-02T09:49:09.185Z,1020.79
2016-05-02T09:50:09.188Z,1020.81
2016-05-02T09:51:09.190Z,1020.72
2016-05-02T09:52:09.194Z,1020.75
2016-05-02T09:53:09.181Z,1020.81
2016-05-02T09:54:09.184Z,1020.72
2016-05-02T09:55:09.186Z,1020.75
2016-05-02T09:56:09.189Z,1020.7
2016-05-02T09:57:09.191Z,1020.76
2016-05-02T09:58:09.194Z,1020.72
2016-05-02T09:59:09.197Z,1020.67
2016-05-02T10:00:09.199Z,1020.82
2016-05-02T10:01:09.202Z,1020.7
2016-05-02T10:02:09.189Z,1020.64
2016-05-02T10:03:09.208Z,1020.65
2016-05-02T10:04:09.211Z,1020.6
2016-05-02T10:05:09.213Z,1020.64
2016-05-02T10:06:09.200Z,1020.57
2016-05-02T10:07:09.202Z,1020.56
2016-05-02T10:08:09.205Z,1020.5
2016-05-02T10:09:09.225Z,1020.54
2016-05-02T10:10:09.270Z,1020.65
2016-05-02T10:11:09.316Z,1020.64
2016-05-02T10:12:09.347Z,1020.61
2016-05-02T10:13:09.393Z,1020.64
2016-05-02T10:14:09.428Z,1020.58
2016-05-02T10:15:09.446Z,1020.53
2016-05-02T10:16:09.496Z,1020.53
2016-05-02T10:17:09.483Z,1020.53
2016-05-02T10:18:09.501Z,1020.43
2016-05-02T10:19:09.516Z,1020.48
2016-05-02T10:20:09.524Z,1020.33
2016-05-02T10:21:09.533Z,1020.34
2016-05-02T10:22:09.837Z,1020.45
2016-05-02T10:23:09.550Z,1020.54
2016-05-02T10:24:09.556Z,1020.36
2016-05-02T10:25:10.514Z,1020.48
2016-05-02T10:26:09.956Z,1020.48
2016-05-02T10:27:09.571Z,1020.4
2016-05-02T10:28:09.559Z,1020.38
2016-05-02T10:29:09.564Z,1020.3
2016-05-02T10:30:09.567Z,1020.41
2016-05-02T10:31:09.617Z,1020.28
2016-05-02T10:32:09.574Z,1020.33
2016-05-02T10:33:09.577Z,1020.31
2016-05-02T10:34:09.580Z,1020.25
2016-05-02T10:35:09.583Z,1020.26
2016-05-02T10:36:09.585Z,1020.18
2016-05-02T10:37:09.589Z,1020.2
2016-05-02T10:38:09.591Z,1020.12
2016-05-02T10:39:09.578Z,1020.21
2016-05-02T10:40:09.580Z,1020.33
2016-05-02T10:41:09.583Z,1020.33
2016-05-02T10:42:09.586Z,1020.27
2016-05-02T10:43:09.589Z,1020.19
2016-05-02T10:44:09.591Z,1020.18
2016-05-02T10:45:09.594Z,1020.22
2016-05-02T10:46:09.596Z,1020.24
2016-05-02T10:47:09.599Z,1020.25
2016-05-02T10:48:09.601Z,1020.15
2016-05-02T10:50:09.592Z,1020.15
2016-05-02T10:51:09.610Z,1020.22
2016-05-02T10:52:09.597Z,1020.24
2016-05-02T10:53:09.928Z,1020.23
2016-05-02T10:54:09.603Z,1020.16
2016-05-02T10:55:09.605Z,1020.13
2016-05-02T10:56:09.608Z,1020.08
2016-05-02T10:57:09.611Z,1020.13
2016-05-02T10:58:09.614Z,1020.09
2016-05-02T10:59:09.617Z,1020.16
2016-05-02T11:00:09.619Z,1020.16
2016-05-02T11:01:09.622Z,1020.14
2016-05-02T11:02:10.608Z,1020.07
2016-05-02T11:03:09.767Z,1020.11
2016-05-02T11:04:09.614Z,1020.05
2016-05-02T11:05:09.617Z,1020.1
2016-05-02T11:06:09.620Z,1020.12
2016-05-02T11:07:09.622Z,1020
2016-05-02T11:08:09.625Z,1020.1
2016-05-02T11:09:09.627Z,1020.12
2016-05-02T11:10:09.630Z,1020.05
2016-05-02T11:11:09.632Z,1020.11
2016-05-02T11:12:09.635Z,1020.06
2016-05-02T11:13:09.639Z,1020.09
2016-05-02T11:14:09.641Z,1020.21
2016-05-02T11:15:09.644Z,1020.09
2016-05-02T11:16:09.646Z,1020.01
2016-05-02T11:17:09.649Z,1020.03
2016-05-02T11:18:09.636Z,1020.07
2016-05-02T11:19:09.654Z,1020.03
2016-05-02T11:20:09.641Z,1019.94
2016-05-02T11:21:09.644Z,1020.02
2016-05-02T11:22:09.646Z,1019.89
2016-05-02T11:23:09.657Z,1019.91
2016-05-02T11:24:09.660Z,1019.83
2016-05-02T11:25:09.663Z,1019.91
2016-05-02T11:26:09.650Z,1019.81
2016-05-02T11:27:09.653Z,1019.84
2016-05-02T11:28:09.655Z,1019.93
2016-05-02T11:29:09.658Z,1019.97
2016-05-02T11:30:09.676Z,1019.92
2016-05-02T11:31:09.663Z,1019.94
2016-05-02T11:32:09.667Z,1019.94
2016-05-02T11:33:09.669Z,1019.87
2016-05-02T11:34:09.672Z,1019.89
2016-05-02T11:35:09.674Z,1020.05
2016-05-02T11:36:09.677Z,1020.01
2016-05-02T11:37:09.680Z,1019.95
2016-05-02T11:38:09.683Z,1019.97
2016-05-02T11:39:09.685Z,1019.91
2016-05-02T11:40:09.688Z,1019.89
2016-05-02T11:41:09.691Z,1019.98
2016-05-02T11:42:09.693Z,1019.99
2016-05-02T11:43:09.695Z,1019.84
2016-05-02T11:44:09.699Z,1019.7
2016-05-02T11:45:10.497Z,1019.72
2016-05-02T11:46:09.704Z,1019.7
2016-05-02T11:47:09.691Z,1019.68
2016-05-02T11:48:09.709Z,1019.69
2016-05-02T11:49:09.696Z,1019.69
2016-05-02T11:50:09.715Z,1019.74
2016-05-02T11:51:09.701Z,1019.81
2016-05-02T11:52:09.720Z,1019.71
2016-05-02T11:53:09.707Z,1019.69
2016-05-02T11:54:09.709Z,1019.76
2016-05-02T11:55:09.712Z,1019.61
2016-05-02T11:56:09.715Z,1019.58
2016-05-02T11:57:09.717Z,1019.63
2016-05-02T11:58:09.720Z,1019.74
2016-05-02T11:59:09.723Z,1019.66
2016-05-02T12:00:09.726Z,1019.92
2016-05-02T12:01:09.744Z,1019.79
2016-05-02T12:02:09.731Z,1019.82
2016-05-02T12:03:09.734Z,1019.74
2016-05-02T12:04:09.737Z,1019.73
2016-05-02T12:05:09.739Z,1019.77
2016-05-02T12:06:09.976Z,1019.81
2016-05-02T12:07:09.745Z,1019.82
2016-05-02T12:08:09.748Z,1019.69
2016-05-02T12:09:09.750Z,1019.72
2016-05-02T12:10:09.753Z,1019.68
2016-05-02T12:11:09.755Z,1019.68
2016-05-02T12:12:09.758Z,1019.72
2016-05-02T12:13:09.761Z,1019.65
2016-05-02T12:14:10.123Z,1019.74
2016-05-02T12:15:09.766Z,1019.65
2016-05-02T12:16:09.768Z,1019.73
2016-05-02T12:17:09.771Z,1019.8